sensor_id;sensor_type;location;lat;lon;timestamp;temperature;humidity
49855;DHT22;35752;52.164;21.244;2023-02-26T00:01:13;1.70;99.90
49855;DHT22;35752;52.164;21.244;2023-02-26T00:03:39;1.60;99.90
49855;DHT22;35752;52.164;21.244;2023-02-26T00:06:05;1.60;99.90
49855;DHT22;35752;52.164;21.244;2023-02-26T00:08:31;1.50;99.90
49855;DHT22;35752;52.164;21.244;2023-02-26T00:10:57;1.40;99.90
49855;DHT22;35752;52.164;21.244;2023-02-26T00:13:23;1.40;99.90
49855;DHT22;35752;52.164;21.244;2023-02-26T00:15:49;1.40;99.90
49855;DHT22;35752;52.164;21.244;2023-02-26T00:18:16;1.40;99.90
49855;DHT22;35752;52.164;21.244;2023-02-26T00:20:42;1.40;99.90
49855;DHT22;35752;52.164;21.244;2023-02-26T00:23:11;1.30;99.90
49855;DHT22;35752;52.164;21.244;2023-02-26T00:25:40;1.30;99.90
49855;DHT22;35752;52.164;21.244;2023-02-26T00:28:06;1.30;99.90
49855;DHT22;35752;52.164;21.244;2023-02-26T00:30:32;1.30;99.90
49855;DHT22;35752;52.164;21.244;2023-02-26T00:32:58;1.30;99.90
49855;DHT22;35752;52.164;21.244;2023-02-26T00:35:23;1.30;99.90
49855;DHT22;35752;52.164;21.244;2023-02-26T00:42:58;1.20;99.90
49855;DHT22;35752;52.164;21.244;2023-02-26T00:45:24;1.20;99.90
49855;DHT22;35752;52.164;21.244;2023-02-26T00:50:30;1.20;99.90
49855;DHT22;35752;52.164;21.244;2023-02-26T00:55:21;1.20;99.90
49855;DHT22;35752;52.164;21.244;2023-02-26T00:57:47;1.10;99.90
49855;DHT22;35752;52.164;21.244;2023-02-26T01:00:13;1.00;99.90
49855;DHT22;35752;52.164;21.244;2023-02-26T01:02:39;1.00;99.90
49855;DHT22;35752;52.164;21.244;2023-02-26T01:05:04;0.90;99.90
49855;DHT22;35752;52.164;21.244;2023-02-26T01:07:32;0.90;99.90
49855;DHT22;35752;52.164;21.244;2023-02-26T01:10:02;0.90;99.90
49855;DHT22;35752;52.164;21.244;2023-02-26T01:12:27;0.90;99.90
49855;DHT22;35752;52.164;21.244;2023-02-26T01:14:53;0.90;99.90
49855;DHT22;35752;52.164;21.244;2023-02-26T01:25:08;0.80;99.90
49855;DHT22;35752;52.164;21.244;2023-02-26T01:27:34;0.80;99.90
49855;DHT22;35752;52.164;21.244;2023-02-26T01:29:59;0.80;99.90
49855;DHT22;35752;52.164;21.244;2023-02-26T01:32:30;0.80;99.90
49855;DHT22;35752;52.164;21.244;2023-02-26T01:35:12;0.90;99.90
49855;DHT22;35752;52.164;21.244;2023-02-26T01:37:46;0.90;99.90
49855;DHT22;35752;52.164;21.244;2023-02-26T01:42:41;0.90;99.90
49855;DHT22;35752;52.164;21.244;2023-02-26T01:45:12;0.90;99.90
49855;DHT22;35752;52.164;21.244;2023-02-26T01:50:18;0.90;99.90
49855;DHT22;35752;52.164;21.244;2023-02-26T01:55:17;0.90;99.90
49855;DHT22;35752;52.164;21.244;2023-02-26T01:57:43;0.90;99.90
49855;DHT22;35752;52.164;21.244;2023-02-26T02:00:09;0.90;99.90
49855;DHT22;35752;52.164;21.244;2023-02-26T02:02:35;0.90;99.90
49855;DHT22;35752;52.164;21.244;2023-02-26T02:05:06;0.80;99.90
49855;DHT22;35752;52.164;21.244;2023-02-26T02:07:33;0.80;99.90
49855;DHT22;35752;52.164;21.244;2023-02-26T02:09:59;0.80;99.90
49855;DHT22;35752;52.164;21.244;2023-02-26T02:32:21;0.80;99.90
49855;DHT22;35752;52.164;21.244;2023-02-26T02:34:52;0.80;99.90
49855;DHT22;35752;52.164;21.244;2023-02-26T02:37:20;0.70;99.90
49855;DHT22;35752;52.164;21.244;2023-02-26T02:44:39;0.70;99.90
49855;DHT22;35752;52.164;21.244;2023-02-26T02:47:05;0.70;99.90
49855;DHT22;35752;52.164;21.244;2023-02-26T02:49:38;0.70;99.90
49855;DHT22;35752;52.164;21.244;2023-02-26T02:52:16;0.70;99.90
49855;DHT22;35752;52.164;21.244;2023-02-26T02:54:48;0.70;99.90
49855;DHT22;35752;52.164;21.244;2023-02-26T02:57:20;0.70;99.90
49855;DHT22;35752;52.164;21.244;2023-02-26T02:59:47;0.70;99.90
49855;DHT22;35752;52.164;21.244;2023-02-26T03:02:18;0.70;99.90
49855;DHT22;35752;52.164;21.244;2023-02-26T03:04:45;0.70;99.90
49855;DHT22;35752;52.164;21.244;2023-02-26T03:07:12;0.70;99.90
49855;DHT22;35752;52.164;21.244;2023-02-26T03:09:38;0.70;99.90
49855;DHT22;35752;52.164;21.244;2023-02-26T03:12:04;0.70;99.90
49855;DHT22;35752;52.164;21.244;2023-02-26T03:14:29;0.70;99.90
49855;DHT22;35752;52.164;21.244;2023-02-26T03:19:52;0.70;99.90
49855;DHT22;35752;52.164;21.244;2023-02-26T03:22:43;0.70;99.90
49855;DHT22;35752;52.164;21.244;2023-02-26T03:25:11;0.80;99.90
49855;DHT22;35752;52.164;21.244;2023-02-26T03:35:37;0.70;99.90
49855;DHT22;35752;52.164;21.244;2023-02-26T03:38:09;0.70;99.90
49855;DHT22;35752;52.164;21.244;2023-02-26T03:40:38;0.70;99.90
49855;DHT22;35752;52.164;21.244;2023-02-26T03:43:07;0.70;99.90
49855;DHT22;35752;52.164;21.244;2023-02-26T03:45:34;0.80;99.90
49855;DHT22;35752;52.164;21.244;2023-02-26T03:48:03;0.80;99.90
49855;DHT22;35752;52.164;21.244;2023-02-26T03:50:31;0.80;99.90
49855;DHT22;35752;52.164;21.244;2023-02-26T03:52:58;0.80;99.90
49855;DHT22;35752;52.164;21.244;2023-02-26T03:55:32;0.80;99.90
49855;DHT22;35752;52.164;21.244;2023-02-26T03:57:59;0.80;99.90
49855;DHT22;35752;52.164;21.244;2023-02-26T04:00:26;0.80;99.90
49855;DHT22;35752;52.164;21.244;2023-02-26T04:03:03;0.90;99.90
49855;DHT22;35752;52.164;21.244;2023-02-26T04:05:33;0.90;99.90
49855;DHT22;35752;52.164;21.244;2023-02-26T04:08:00;0.80;99.90
49855;DHT22;35752;52.164;21.244;2023-02-26T04:10:28;0.80;99.90
49855;DHT22;35752;52.164;21.244;2023-02-26T04:12:57;0.80;99.90
49855;DHT22;35752;52.164;21.244;2023-02-26T04:15:23;0.70;99.90
49855;DHT22;35752;52.164;21.244;2023-02-26T04:17:48;0.70;99.90
49855;DHT22;35752;52.164;21.244;2023-02-26T04:20:14;0.80;99.90
49855;DHT22;35752;52.164;21.244;2023-02-26T04:22:40;0.80;99.90
49855;DHT22;35752;52.164;21.244;2023-02-26T04:25:05;0.70;99.90
49855;DHT22;35752;52.164;21.244;2023-02-26T04:27:31;0.70;99.90
49855;DHT22;35752;52.164;21.244;2023-02-26T04:29:56;0.70;99.90
49855;DHT22;35752;52.164;21.244;2023-02-26T04:32:22;0.70;99.90
49855;DHT22;35752;52.164;21.244;2023-02-26T04:34:47;0.70;99.90
49855;DHT22;35752;52.164;21.244;2023-02-26T04:37:13;0.70;99.90
49855;DHT22;35752;52.164;21.244;2023-02-26T04:39:38;0.70;99.90
49855;DHT22;35752;52.164;21.244;2023-02-26T04:42:04;0.70;99.90
49855;DHT22;35752;52.164;21.244;2023-02-26T04:44:30;0.60;99.90
49855;DHT22;35752;52.164;21.244;2023-02-26T04:46:56;0.70;99.90
49855;DHT22;35752;52.164;21.244;2023-02-26T04:49:21;0.70;99.90
49855;DHT22;35752;52.164;21.244;2023-02-26T04:51:47;0.60;99.90
49855;DHT22;35752;52.164;21.244;2023-02-26T04:54:12;0.60;99.90
49855;DHT22;35752;52.164;21.244;2023-02-26T04:56:38;0.70;99.90
49855;DHT22;35752;52.164;21.244;2023-02-26T04:59:04;0.70;99.90
49855;DHT22;35752;52.164;21.244;2023-02-26T05:01:29;0.70;99.90
49855;DHT22;35752;52.164;21.244;2023-02-26T05:03:55;0.70;99.90
49855;DHT22;35752;52.164;21.244;2023-02-26T05:06:20;0.60;99.90
49855;DHT22;35752;52.164;21.244;2023-02-26T05:08:46;0.60;99.90
49855;DHT22;35752;52.164;21.244;2023-02-26T05:11:11;0.60;99.90
49855;DHT22;35752;52.164;21.244;2023-02-26T05:13:37;0.60;99.90
49855;DHT22;35752;52.164;21.244;2023-02-26T05:16:03;0.60;99.90
49855;DHT22;35752;52.164;21.244;2023-02-26T05:18:29;0.60;99.90
49855;DHT22;35752;52.164;21.244;2023-02-26T05:20:54;0.60;99.90
49855;DHT22;35752;52.164;21.244;2023-02-26T05:23:21;0.60;99.90
49855;DHT22;35752;52.164;21.244;2023-02-26T05:25:46;0.50;99.90
49855;DHT22;35752;52.164;21.244;2023-02-26T05:28:12;0.50;99.90
49855;DHT22;35752;52.164;21.244;2023-02-26T05:30:38;0.50;99.90
49855;DHT22;35752;52.164;21.244;2023-02-26T05:33:04;0.50;99.90
49855;DHT22;35752;52.164;21.244;2023-02-26T05:35:30;0.50;99.90
49855;DHT22;35752;52.164;21.244;2023-02-26T05:37:55;0.50;99.90
49855;DHT22;35752;52.164;21.244;2023-02-26T05:40:21;0.50;99.90
49855;DHT22;35752;52.164;21.244;2023-02-26T05:42:47;0.60;99.90
49855;DHT22;35752;52.164;21.244;2023-02-26T05:45:13;0.60;99.90
49855;DHT22;35752;52.164;21.244;2023-02-26T05:47:38;0.50;99.90
49855;DHT22;35752;52.164;21.244;2023-02-26T05:50:04;0.50;99.90
49855;DHT22;35752;52.164;21.244;2023-02-26T05:52:30;0.50;99.90
49855;DHT22;35752;52.164;21.244;2023-02-26T05:54:55;0.50;99.90
49855;DHT22;35752;52.164;21.244;2023-02-26T05:57:21;0.60;99.90
49855;DHT22;35752;52.164;21.244;2023-02-26T05:59:47;0.50;99.90
49855;DHT22;35752;52.164;21.244;2023-02-26T06:02:12;0.50;99.90
49855;DHT22;35752;52.164;21.244;2023-02-26T06:04:38;0.40;99.90
49855;DHT22;35752;52.164;21.244;2023-02-26T06:07:04;0.50;99.90
49855;DHT22;35752;52.164;21.244;2023-02-26T06:09:29;0.50;99.90
49855;DHT22;35752;52.164;21.244;2023-02-26T06:11:55;0.50;99.90
49855;DHT22;35752;52.164;21.244;2023-02-26T06:14:20;0.40;99.90
49855;DHT22;35752;52.164;21.244;2023-02-26T06:16:46;0.50;99.90
49855;DHT22;35752;52.164;21.244;2023-02-26T06:19:11;0.50;99.90
49855;DHT22;35752;52.164;21.244;2023-02-26T06:21:37;0.50;99.90
49855;DHT22;35752;52.164;21.244;2023-02-26T06:24:02;0.50;99.90
49855;DHT22;35752;52.164;21.244;2023-02-26T06:26:28;0.50;99.90
49855;DHT22;35752;52.164;21.244;2023-02-26T06:28:53;0.50;99.90
49855;DHT22;35752;52.164;21.244;2023-02-26T06:31:19;0.50;99.90
49855;DHT22;35752;52.164;21.244;2023-02-26T06:33:45;0.50;99.90
49855;DHT22;35752;52.164;21.244;2023-02-26T06:36:10;0.50;99.90
49855;DHT22;35752;52.164;21.244;2023-02-26T06:38:36;0.40;99.90
49855;DHT22;35752;52.164;21.244;2023-02-26T06:41:01;0.40;99.90
49855;DHT22;35752;52.164;21.244;2023-02-26T06:43:27;0.30;99.90
49855;DHT22;35752;52.164;21.244;2023-02-26T06:45:55;0.30;99.90
49855;DHT22;35752;52.164;21.244;2023-02-26T06:48:21;0.30;99.90
49855;DHT22;35752;52.164;21.244;2023-02-26T06:50:46;0.20;99.90
49855;DHT22;35752;52.164;21.244;2023-02-26T06:53:12;0.20;99.90
49855;DHT22;35752;52.164;21.244;2023-02-26T06:55:41;0.20;99.90
49855;DHT22;35752;52.164;21.244;2023-02-26T06:58:07;0.20;99.90
49855;DHT22;35752;52.164;21.244;2023-02-26T07:00:33;0.20;99.90
49855;DHT22;35752;52.164;21.244;2023-02-26T07:02:59;0.10;99.90
49855;DHT22;35752;52.164;21.244;2023-02-26T07:05:25;0.20;99.90
49855;DHT22;35752;52.164;21.244;2023-02-26T07:07:51;0.20;99.90
49855;DHT22;35752;52.164;21.244;2023-02-26T07:10:16;0.10;99.90
49855;DHT22;35752;52.164;21.244;2023-02-26T07:12:42;0.10;99.90
49855;DHT22;35752;52.164;21.244;2023-02-26T07:15:07;0.10;99.90
49855;DHT22;35752;52.164;21.244;2023-02-26T07:17:33;0.10;99.90
49855;DHT22;35752;52.164;21.244;2023-02-26T07:19:58;0.10;99.90
49855;DHT22;35752;52.164;21.244;2023-02-26T07:22:30;0.10;99.90
49855;DHT22;35752;52.164;21.244;2023-02-26T07:24:55;0.20;99.90
49855;DHT22;35752;52.164;21.244;2023-02-26T07:27:21;0.20;99.90
49855;DHT22;35752;52.164;21.244;2023-02-26T07:29:46;0.20;99.90
49855;DHT22;35752;52.164;21.244;2023-02-26T07:32:12;0.30;99.90
49855;DHT22;35752;52.164;21.244;2023-02-26T07:34:38;0.30;99.90
49855;DHT22;35752;52.164;21.244;2023-02-26T07:37:03;0.30;99.90
49855;DHT22;35752;52.164;21.244;2023-02-26T07:39:29;0.40;99.90
49855;DHT22;35752;52.164;21.244;2023-02-26T07:41:54;0.40;99.90
49855;DHT22;35752;52.164;21.244;2023-02-26T07:44:20;0.50;99.90
49855;DHT22;35752;52.164;21.244;2023-02-26T07:46:45;0.50;99.90
49855;DHT22;35752;52.164;21.244;2023-02-26T07:49:11;0.50;99.90
49855;DHT22;35752;52.164;21.244;2023-02-26T07:51:36;0.60;99.90
49855;DHT22;35752;52.164;21.244;2023-02-26T07:54:02;0.60;99.90
49855;DHT22;35752;52.164;21.244;2023-02-26T07:56:28;0.60;99.90
49855;DHT22;35752;52.164;21.244;2023-02-26T07:58:53;0.70;99.90
49855;DHT22;35752;52.164;21.244;2023-02-26T08:01:19;0.70;99.90
49855;DHT22;35752;52.164;21.244;2023-02-26T08:03:44;0.70;99.90
49855;DHT22;35752;52.164;21.244;2023-02-26T08:06:10;0.60;99.90
49855;DHT22;35752;52.164;21.244;2023-02-26T08:08:35;0.70;99.90
49855;DHT22;35752;52.164;21.244;2023-02-26T08:11:01;0.60;99.90
49855;DHT22;35752;52.164;21.244;2023-02-26T08:13:26;0.80;99.90
49855;DHT22;35752;52.164;21.244;2023-02-26T08:15:52;0.70;99.90
49855;DHT22;35752;52.164;21.244;2023-02-26T08:18:18;0.70;99.90
49855;DHT22;35752;52.164;21.244;2023-02-26T08:20:43;0.70;99.90
49855;DHT22;35752;52.164;21.244;2023-02-26T08:23:09;0.90;99.90
49855;DHT22;35752;52.164;21.244;2023-02-26T08:25:35;0.90;99.90
49855;DHT22;35752;52.164;21.244;2023-02-26T08:28:00;1.00;99.90
49855;DHT22;35752;52.164;21.244;2023-02-26T08:30:27;1.00;99.90
49855;DHT22;35752;52.164;21.244;2023-02-26T08:32:53;1.10;99.90
49855;DHT22;35752;52.164;21.244;2023-02-26T08:35:18;1.10;99.90
49855;DHT22;35752;52.164;21.244;2023-02-26T08:37:44;1.10;99.90
49855;DHT22;35752;52.164;21.244;2023-02-26T08:40:10;1.10;99.90
49855;DHT22;35752;52.164;21.244;2023-02-26T08:42:36;1.00;99.90
49855;DHT22;35752;52.164;21.244;2023-02-26T08:45:02;0.90;99.90
49855;DHT22;35752;52.164;21.244;2023-02-26T08:47:27;0.90;99.90
49855;DHT22;35752;52.164;21.244;2023-02-26T08:49:53;0.90;99.90
49855;DHT22;35752;52.164;21.244;2023-02-26T08:52:19;1.00;99.90
49855;DHT22;35752;52.164;21.244;2023-02-26T08:54:45;1.10;99.90
49855;DHT22;35752;52.164;21.244;2023-02-26T08:57:10;1.10;99.90
49855;DHT22;35752;52.164;21.244;2023-02-26T08:59:36;1.00;99.90
49855;DHT22;35752;52.164;21.244;2023-02-26T09:02:02;0.90;99.90
49855;DHT22;35752;52.164;21.244;2023-02-26T09:04:27;0.90;99.90
49855;DHT22;35752;52.164;21.244;2023-02-26T09:06:53;0.90;99.90
49855;DHT22;35752;52.164;21.244;2023-02-26T09:09:19;0.90;99.90
49855;DHT22;35752;52.164;21.244;2023-02-26T09:11:45;0.90;99.90
49855;DHT22;35752;52.164;21.244;2023-02-26T09:14:10;0.90;99.90
49855;DHT22;35752;52.164;21.244;2023-02-26T09:16:36;0.80;99.90
49855;DHT22;35752;52.164;21.244;2023-02-26T09:19:02;0.90;99.90
49855;DHT22;35752;52.164;21.244;2023-02-26T09:21:28;0.80;99.90
49855;DHT22;35752;52.164;21.244;2023-02-26T09:23:53;0.80;99.90
49855;DHT22;35752;52.164;21.244;2023-02-26T09:26:19;0.70;99.90
49855;DHT22;35752;52.164;21.244;2023-02-26T09:28:44;0.60;99.90
49855;DHT22;35752;52.164;21.244;2023-02-26T09:31:10;0.70;99.90
49855;DHT22;35752;52.164;21.244;2023-02-26T09:33:35;0.70;99.90
49855;DHT22;35752;52.164;21.244;2023-02-26T09:36:01;0.70;99.90
49855;DHT22;35752;52.164;21.244;2023-02-26T09:38:27;0.80;99.90
49855;DHT22;35752;52.164;21.244;2023-02-26T09:40:57;0.80;99.90
49855;DHT22;35752;52.164;21.244;2023-02-26T09:45:55;0.80;99.90
49855;DHT22;35752;52.164;21.244;2023-02-26T09:48:22;0.80;99.90
49855;DHT22;35752;52.164;21.244;2023-02-26T09:50:50;0.80;99.90
49855;DHT22;35752;52.164;21.244;2023-02-26T09:55:42;0.80;99.90
49855;DHT22;35752;52.164;21.244;2023-02-26T09:58:23;0.80;99.90
49855;DHT22;35752;52.164;21.244;2023-02-26T10:03:30;0.80;99.90
49855;DHT22;35752;52.164;21.244;2023-02-26T10:08:33;0.80;99.90
49855;DHT22;35752;52.164;21.244;2023-02-26T10:11:11;0.90;99.90
49855;DHT22;35752;52.164;21.244;2023-02-26T10:13:49;0.90;99.90
49855;DHT22;35752;52.164;21.244;2023-02-26T10:16:19;1.00;99.90
49855;DHT22;35752;52.164;21.244;2023-02-26T10:18:51;0.90;99.90
49855;DHT22;35752;52.164;21.244;2023-02-26T10:21:22;0.90;99.90
49855;DHT22;35752;52.164;21.244;2023-02-26T10:23:50;0.90;99.90
49855;DHT22;35752;52.164;21.244;2023-02-26T10:26:23;0.80;99.90
49855;DHT22;35752;52.164;21.244;2023-02-26T10:34:03;0.80;99.90
49855;DHT22;35752;52.164;21.244;2023-02-26T10:36:55;0.80;99.90
49855;DHT22;35752;52.164;21.244;2023-02-26T10:39:20;0.90;99.90
49855;DHT22;35752;52.164;21.244;2023-02-26T10:41:46;0.80;99.90
49855;DHT22;35752;52.164;21.244;2023-02-26T10:44:14;0.80;99.90
49855;DHT22;35752;52.164;21.244;2023-02-26T10:46:48;0.90;99.90
49855;DHT22;35752;52.164;21.244;2023-02-26T10:52:09;0.80;99.90
49855;DHT22;35752;52.164;21.244;2023-02-26T10:54:36;0.80;99.90
49855;DHT22;35752;52.164;21.244;2023-02-26T10:57:03;0.90;99.90
49855;DHT22;35752;52.164;21.244;2023-02-26T10:59:29;0.90;99.90
49855;DHT22;35752;52.164;21.244;2023-02-26T11:01:55;0.80;99.90
49855;DHT22;35752;52.164;21.244;2023-02-26T11:04:22;0.90;99.90
49855;DHT22;35752;52.164;21.244;2023-02-26T11:07:01;0.90;99.90
49855;DHT22;35752;52.164;21.244;2023-02-26T11:09:36;0.80;99.90
49855;DHT22;35752;52.164;21.244;2023-02-26T11:12:11;0.80;99.90
49855;DHT22;35752;52.164;21.244;2023-02-26T11:14:37;0.80;99.90
49855;DHT22;35752;52.164;21.244;2023-02-26T11:17:06;0.80;99.90
49855;DHT22;35752;52.164;21.244;2023-02-26T11:19:34;0.70;99.90
49855;DHT22;35752;52.164;21.244;2023-02-26T11:22:01;0.60;99.90
49855;DHT22;35752;52.164;21.244;2023-02-26T11:24:29;0.70;99.90
49855;DHT22;35752;52.164;21.244;2023-02-26T11:26:56;0.90;99.90
49855;DHT22;35752;52.164;21.244;2023-02-26T11:29:23;0.90;99.90
49855;DHT22;35752;52.164;21.244;2023-02-26T11:31:50;0.80;99.90
49855;DHT22;35752;52.164;21.244;2023-02-26T11:34:16;1.00;99.90
49855;DHT22;35752;52.164;21.244;2023-02-26T11:36:45;0.90;99.90
49855;DHT22;35752;52.164;21.244;2023-02-26T11:39:14;0.90;99.90
49855;DHT22;35752;52.164;21.244;2023-02-26T11:41:41;1.00;99.90
49855;DHT22;35752;52.164;21.244;2023-02-26T11:44:12;1.10;99.90
49855;DHT22;35752;52.164;21.244;2023-02-26T11:46:42;1.10;99.90
49855;DHT22;35752;52.164;21.244;2023-02-26T11:49:10;1.20;99.90
49855;DHT22;35752;52.164;21.244;2023-02-26T11:51:37;1.30;99.90
49855;DHT22;35752;52.164;21.244;2023-02-26T11:54:09;1.30;99.90
49855;DHT22;35752;52.164;21.244;2023-02-26T11:56:42;1.20;99.90
49855;DHT22;35752;52.164;21.244;2023-02-26T11:59:19;1.30;99.90
49855;DHT22;35752;52.164;21.244;2023-02-26T12:01:45;1.40;99.90
49855;DHT22;35752;52.164;21.244;2023-02-26T12:04:14;1.40;99.90
49855;DHT22;35752;52.164;21.244;2023-02-26T12:06:39;1.40;99.90
49855;DHT22;35752;52.164;21.244;2023-02-26T12:09:12;1.50;99.90
49855;DHT22;35752;52.164;21.244;2023-02-26T12:14:10;1.40;99.90
49855;DHT22;35752;52.164;21.244;2023-02-26T12:19:19;1.40;99.60
49855;DHT22;35752;52.164;21.244;2023-02-26T12:24:28;1.40;99.00
49855;DHT22;35752;52.164;21.244;2023-02-26T12:27:04;1.40;99.10
49855;DHT22;35752;52.164;21.244;2023-02-26T12:30:19;1.40;98.50
49855;DHT22;35752;52.164;21.244;2023-02-26T12:32:34;1.30;97.70
49855;DHT22;35752;52.164;21.244;2023-02-26T12:35:10;1.30;99.30
49855;DHT22;35752;52.164;21.244;2023-02-26T12:47:38;1.20;99.30
49855;DHT22;35752;52.164;21.244;2023-02-26T13:05:49;1.40;99.90
49855;DHT22;35752;52.164;21.244;2023-02-26T13:08:20;1.50;99.90
49855;DHT22;35752;52.164;21.244;2023-02-26T13:11:00;1.50;99.90
49855;DHT22;35752;52.164;21.244;2023-02-26T13:16:50;1.60;99.90
49855;DHT22;35752;52.164;21.244;2023-02-26T13:19:16;1.60;99.90
49855;DHT22;35752;52.164;21.244;2023-02-26T13:21:44;1.70;99.90
49855;DHT22;35752;52.164;21.244;2023-02-26T13:24:13;1.70;99.90
49855;DHT22;35752;52.164;21.244;2023-02-26T13:26:39;1.70;99.90
49855;DHT22;35752;52.164;21.244;2023-02-26T13:31:42;1.60;99.90
49855;DHT22;35752;52.164;21.244;2023-02-26T13:34:12;1.70;99.90
49855;DHT22;35752;52.164;21.244;2023-02-26T13:36:40;1.70;99.90
49855;DHT22;35752;52.164;21.244;2023-02-26T13:44:20;1.70;99.90
49855;DHT22;35752;52.164;21.244;2023-02-26T13:46:53;1.60;99.90
49855;DHT22;35752;52.164;21.244;2023-02-26T13:51:55;1.50;99.90
49855;DHT22;35752;52.164;21.244;2023-02-26T13:59:35;1.70;99.90
49855;DHT22;35752;52.164;21.244;2023-02-26T14:02:49;1.80;99.90
49855;DHT22;35752;52.164;21.244;2023-02-26T14:04:58;1.80;99.60
49855;DHT22;35752;52.164;21.244;2023-02-26T14:10:15;1.90;99.90
49855;DHT22;35752;52.164;21.244;2023-02-26T14:12:42;1.80;97.80
49855;DHT22;35752;52.164;21.244;2023-02-26T14:17:40;1.70;96.50
49855;DHT22;35752;52.164;21.244;2023-02-26T14:20:25;1.80;97.20
49855;DHT22;35752;52.164;21.244;2023-02-26T14:22:52;1.70;96.50
49855;DHT22;35752;52.164;21.244;2023-02-26T14:25:31;1.80;97.20
49855;DHT22;35752;52.164;21.244;2023-02-26T14:30:46;1.70;96.60
49855;DHT22;35752;52.164;21.244;2023-02-26T14:33:12;1.70;96.30
49855;DHT22;35752;52.164;21.244;2023-02-26T14:35:49;1.60;96.00
49855;DHT22;35752;52.164;21.244;2023-02-26T14:38:34;1.70;95.80
49855;DHT22;35752;52.164;21.244;2023-02-26T14:43:49;1.70;97.30
49855;DHT22;35752;52.164;21.244;2023-02-26T14:46:17;1.80;96.50
49855;DHT22;35752;52.164;21.244;2023-02-26T14:48:43;1.70;96.00
49855;DHT22;35752;52.164;21.244;2023-02-26T14:51:16;1.80;95.80
49855;DHT22;35752;52.164;21.244;2023-02-26T15:07:02;1.70;96.70
49855;DHT22;35752;52.164;21.244;2023-02-26T15:09:37;1.70;96.90
49855;DHT22;35752;52.164;21.244;2023-02-26T15:24:59;1.80;96.80
49855;DHT22;35752;52.164;21.244;2023-02-26T15:27:25;1.70;96.90
49855;DHT22;35752;52.164;21.244;2023-02-26T15:29:54;1.70;97.10
49855;DHT22;35752;52.164;21.244;2023-02-26T15:32:21;1.70;97.50
49855;DHT22;35752;52.164;21.244;2023-02-26T15:34:54;1.70;97.70
49855;DHT22;35752;52.164;21.244;2023-02-26T15:37:20;1.70;97.90
49855;DHT22;35752;52.164;21.244;2023-02-26T15:39:49;1.70;98.20
49855;DHT22;35752;52.164;21.244;2023-02-26T15:42:16;1.60;98.50
49855;DHT22;35752;52.164;21.244;2023-02-26T15:44:42;1.60;98.40
49855;DHT22;35752;52.164;21.244;2023-02-26T15:47:08;1.50;98.50
49855;DHT22;35752;52.164;21.244;2023-02-26T15:49:37;1.50;98.50
49855;DHT22;35752;52.164;21.244;2023-02-26T15:52:04;1.40;98.70
49855;DHT22;35752;52.164;21.244;2023-02-26T15:54:40;1.40;99.10
49855;DHT22;35752;52.164;21.244;2023-02-26T15:57:08;1.30;99.90
49855;DHT22;35752;52.164;21.244;2023-02-26T15:59:34;1.30;99.90
49855;DHT22;35752;52.164;21.244;2023-02-26T16:02:09;1.40;99.90
49855;DHT22;35752;52.164;21.244;2023-02-26T16:04:35;1.30;99.90
49855;DHT22;35752;52.164;21.244;2023-02-26T16:07:01;1.30;99.90
49855;DHT22;35752;52.164;21.244;2023-02-26T16:09:34;1.30;99.90
49855;DHT22;35752;52.164;21.244;2023-02-26T16:12:02;1.30;99.90
49855;DHT22;35752;52.164;21.244;2023-02-26T16:14:30;1.20;99.90
49855;DHT22;35752;52.164;21.244;2023-02-26T16:16:58;1.30;99.90
49855;DHT22;35752;52.164;21.244;2023-02-26T16:24:44;1.10;99.90
49855;DHT22;35752;52.164;21.244;2023-02-26T16:27:11;1.00;99.90
49855;DHT22;35752;52.164;21.244;2023-02-26T16:29:39;0.90;99.90
49855;DHT22;35752;52.164;21.244;2023-02-26T16:32:08;0.90;99.90
49855;DHT22;35752;52.164;21.244;2023-02-26T16:34:40;1.00;99.90
49855;DHT22;35752;52.164;21.244;2023-02-26T16:39:36;1.10;99.90
49855;DHT22;35752;52.164;21.244;2023-02-26T16:42:08;1.10;99.90
49855;DHT22;35752;52.164;21.244;2023-02-26T16:44:45;1.00;99.90
49855;DHT22;35752;52.164;21.244;2023-02-26T16:47:11;1.00;99.90
49855;DHT22;35752;52.164;21.244;2023-02-26T16:49:37;1.00;99.90
49855;DHT22;35752;52.164;21.244;2023-02-26T16:52:04;1.00;99.90
49855;DHT22;35752;52.164;21.244;2023-02-26T16:54:31;0.90;99.90
49855;DHT22;35752;52.164;21.244;2023-02-26T16:56:58;1.00;99.90
49855;DHT22;35752;52.164;21.244;2023-02-26T16:59:31;0.90;99.90
49855;DHT22;35752;52.164;21.244;2023-02-26T17:02:04;0.90;99.90
49855;DHT22;35752;52.164;21.244;2023-02-26T17:04:36;0.90;99.90
49855;DHT22;35752;52.164;21.244;2023-02-26T17:07:04;0.90;99.90
49855;DHT22;35752;52.164;21.244;2023-02-26T17:09:37;0.90;99.90
49855;DHT22;35752;52.164;21.244;2023-02-26T17:12:11;0.70;99.90
49855;DHT22;35752;52.164;21.244;2023-02-26T17:14:39;0.70;99.90
49855;DHT22;35752;52.164;21.244;2023-02-26T17:17:05;0.70;99.90
49855;DHT22;35752;52.164;21.244;2023-02-26T17:19:30;0.70;99.90
49855;DHT22;35752;52.164;21.244;2023-02-26T17:21:56;0.70;99.90
49855;DHT22;35752;52.164;21.244;2023-02-26T17:24:25;0.70;99.90
49855;DHT22;35752;52.164;21.244;2023-02-26T17:26:53;0.70;99.90
49855;DHT22;35752;52.164;21.244;2023-02-26T17:29:20;0.80;99.90
49855;DHT22;35752;52.164;21.244;2023-02-26T17:31:47;0.80;99.90
49855;DHT22;35752;52.164;21.244;2023-02-26T17:34:13;0.90;99.90
49855;DHT22;35752;52.164;21.244;2023-02-26T17:36:39;0.90;99.90
49855;DHT22;35752;52.164;21.244;2023-02-26T17:39:05;0.90;99.90
49855;DHT22;35752;52.164;21.244;2023-02-26T17:41:30;0.90;99.90
49855;DHT22;35752;52.164;21.244;2023-02-26T17:43:56;0.90;99.90
49855;DHT22;35752;52.164;21.244;2023-02-26T17:46:21;1.00;99.90
49855;DHT22;35752;52.164;21.244;2023-02-26T17:48:47;1.00;99.90
49855;DHT22;35752;52.164;21.244;2023-02-26T17:51:12;1.00;99.90
49855;DHT22;35752;52.164;21.244;2023-02-26T17:53:38;1.00;99.90
49855;DHT22;35752;52.164;21.244;2023-02-26T17:56:10;0.90;99.90
49855;DHT22;35752;52.164;21.244;2023-02-26T17:58:36;0.90;99.90
49855;DHT22;35752;52.164;21.244;2023-02-26T18:01:01;1.00;99.90
49855;DHT22;35752;52.164;21.244;2023-02-26T18:03:28;0.90;99.90
49855;DHT22;35752;52.164;21.244;2023-02-26T18:05:54;0.80;99.90
49855;DHT22;35752;52.164;21.244;2023-02-26T18:08:22;0.80;99.90
49855;DHT22;35752;52.164;21.244;2023-02-26T18:10:48;0.80;99.90
49855;DHT22;35752;52.164;21.244;2023-02-26T18:13:14;0.80;99.90
49855;DHT22;35752;52.164;21.244;2023-02-26T18:15:39;0.70;99.90
49855;DHT22;35752;52.164;21.244;2023-02-26T18:18:05;0.70;99.90
49855;DHT22;35752;52.164;21.244;2023-02-26T18:20:31;0.70;99.90
49855;DHT22;35752;52.164;21.244;2023-02-26T18:22:56;0.70;99.90
49855;DHT22;35752;52.164;21.244;2023-02-26T18:25:22;0.70;99.90
49855;DHT22;35752;52.164;21.244;2023-02-26T18:27:53;0.70;99.90
49855;DHT22;35752;52.164;21.244;2023-02-26T18:30:25;0.70;99.90